VOI1130 MMCL-MMHO
Flight info
| Callsign | VOI1130 |
|---|---|
| Flight time | N/A |
| Altitude | 34000 |
| Route | CUL1B CUL UJ7 HMO |
| Aircraft | A320/M-SDE3FGHIRWY/LB1 |
Departure
| Time | N/A |
|---|---|
| Airport | Bachigualato Federal International Airport (MMCL) |
Arrival
| Time | 2026-04-21 22:16 |
|---|---|
| Airport | General Ignacio L. Pesqueira International Airport (MMHO) |
| Time | Latitude | Longitude | Altitude | Speed | Heading |
|---|---|---|---|---|---|
| 2026-04-21 21:56 | 28.15805 | -110.32508 | 16277 ft | 274 kts | 330° |
| 2026-04-21 21:56 | 28.17517 | -110.33450 | 15927 ft | 273 kts | 330° |
| 2026-04-21 21:56 | 28.19200 | -110.34378 | 15582 ft | 271 kts | 330° |
| 2026-04-21 21:56 | 28.20728 | -110.35221 | 15267 ft | 270 kts | 330° |
| 2026-04-21 21:57 | 28.22410 | -110.36148 | 14920 ft | 269 kts | 330° |
| 2026-04-21 21:57 | 28.24088 | -110.37072 | 14573 ft | 267 kts | 330° |
| 2026-04-21 21:57 | 28.25758 | -110.37991 | 14227 ft | 266 kts | 330° |
| 2026-04-21 21:57 | 28.27421 | -110.38910 | 13882 ft | 264 kts | 330° |
| 2026-04-21 21:58 | 28.29071 | -110.39821 | 13540 ft | 263 kts | 330° |
| 2026-04-21 21:58 | 28.30709 | -110.40725 | 13199 ft | 262 kts | 330° |
| 2026-04-21 21:58 | 28.32324 | -110.41617 | 12863 ft | 260 kts | 330° |
| 2026-04-21 21:58 | 28.33948 | -110.42514 | 12524 ft | 259 kts | 330° |
| 2026-04-21 21:59 | 28.35564 | -110.43407 | 12187 ft | 258 kts | 330° |
| 2026-04-21 21:59 | 28.37173 | -110.44297 | 11851 ft | 256 kts | 330° |
| 2026-04-21 21:59 | 28.38766 | -110.45177 | 11551 ft | 252 kts | 330° |
| 2026-04-21 21:59 | 28.40334 | -110.46044 | 11216 ft | 250 kts | 330° |
| 2026-04-21 22:00 | 28.41905 | -110.46914 | 10850 ft | 251 kts | 331° |
| 2026-04-21 22:00 | 28.43472 | -110.47780 | 10520 ft | 249 kts | 331° |
| 2026-04-21 22:00 | 28.45009 | -110.48629 | 10201 ft | 248 kts | 331° |
| 2026-04-21 22:00 | 28.46556 | -110.49487 | 9808 ft | 246 kts | 332° |
| 2026-04-21 22:01 | 28.48088 | -110.50337 | 9388 ft | 244 kts | 332° |
| 2026-04-21 22:01 | 28.49614 | -110.51182 | 9046 ft | 243 kts | 332° |
| 2026-04-21 22:01 | 28.51134 | -110.52029 | 9001 ft | 244 kts | 332° |
| 2026-04-21 22:01 | 28.52662 | -110.52873 | 9000 ft | 244 kts | 333° |
| 2026-04-21 22:02 | 28.54172 | -110.53708 | 8999 ft | 244 kts | 332° |
| 2026-04-21 22:02 | 28.55718 | -110.54566 | 8999 ft | 244 kts | 332° |
| 2026-04-21 22:02 | 28.57224 | -110.55402 | 8999 ft | 244 kts | 332° |
| 2026-04-21 22:02 | 28.58753 | -110.56249 | 8999 ft | 244 kts | 332° |
| 2026-04-21 22:03 | 28.60282 | -110.57098 | 8999 ft | 244 kts | 332° |
| 2026-04-21 22:03 | 28.61807 | -110.57948 | 8999 ft | 244 kts | 332° |
| 2026-04-21 22:03 | 28.63331 | -110.58796 | 9001 ft | 244 kts | 332° |
| 2026-04-21 22:03 | 28.64369 | -110.59372 | 8998 ft | 244 kts | 332° |
| 2026-04-21 22:04 | 28.65873 | -110.60207 | 8998 ft | 244 kts | 332° |
| 2026-04-21 22:04 | 28.67398 | -110.61055 | 8998 ft | 244 kts | 332° |
| 2026-04-21 22:04 | 28.68925 | -110.61906 | 8999 ft | 244 kts | 332° |
| 2026-04-21 22:04 | 28.70444 | -110.62752 | 8910 ft | 242 kts | 332° |
| 2026-04-21 22:05 | 28.71955 | -110.63592 | 8604 ft | 241 kts | 333° |
| 2026-04-21 22:05 | 28.73471 | -110.64436 | 8289 ft | 241 kts | 333° |
| 2026-04-21 22:05 | 28.74963 | -110.65268 | 7986 ft | 241 kts | 333° |
| 2026-04-21 22:05 | 28.76466 | -110.66104 | 7726 ft | 240 kts | 333° |
| 2026-04-21 22:06 | 28.77984 | -110.66948 | 7497 ft | 245 kts | 333° |
| 2026-04-21 22:06 | 28.79508 | -110.67799 | 7257 ft | 241 kts | 333° |
| 2026-04-21 22:06 | 28.81007 | -110.68639 | 7000 ft | 239 kts | 333° |
| 2026-04-21 22:06 | 28.82500 | -110.69473 | 6693 ft | 239 kts | 334° |
| 2026-04-21 22:07 | 28.83993 | -110.70301 | 6394 ft | 239 kts | 334° |
| 2026-04-21 22:07 | 28.85499 | -110.71139 | 6180 ft | 243 kts | 334° |
| 2026-04-21 22:07 | 28.86982 | -110.71967 | 5992 ft | 234 kts | 334° |
| 2026-04-21 22:07 | 28.88407 | -110.72768 | 5834 ft | 223 kts | 334° |
| 2026-04-21 22:08 | 28.89789 | -110.73543 | 5521 ft | 220 kts | 334° |
| 2026-04-21 22:08 | 28.91156 | -110.74306 | 5197 ft | 217 kts | 334° |
| 2026-04-21 22:08 | 28.92518 | -110.75067 | 4823 ft | 219 kts | 334° |
| 2026-04-21 22:08 | 28.93891 | -110.75833 | 4479 ft | 219 kts | 334° |
| 2026-04-21 22:09 | 28.95258 | -110.76599 | 4145 ft | 219 kts | 334° |
| 2026-04-21 22:09 | 28.96626 | -110.77368 | 3995 ft | 219 kts | 334° |
| 2026-04-21 22:09 | 28.98000 | -110.78136 | 3996 ft | 220 kts | 334° |
| 2026-04-21 22:09 | 28.99375 | -110.78904 | 3997 ft | 220 kts | 334° |
| 2026-04-21 22:10 | 29.00747 | -110.79672 | 3997 ft | 219 kts | 334° |
| 2026-04-21 22:10 | 29.02091 | -110.80427 | 3861 ft | 216 kts | 334° |
| 2026-04-21 22:10 | 29.03431 | -110.81179 | 3575 ft | 214 kts | 334° |
| 2026-04-21 22:10 | 29.04763 | -110.81932 | 3274 ft | 213 kts | 332° |
| 2026-04-21 22:11 | 29.05938 | -110.82945 | 3025 ft | 212 kts | 316° |
| 2026-04-21 22:11 | 29.06965 | -110.84162 | 3006 ft | 212 kts | 313° |
| 2026-04-21 22:11 | 29.07974 | -110.85353 | 3004 ft | 212 kts | 315° |
| 2026-04-21 22:11 | 29.08996 | -110.86482 | 2990 ft | 191 kts | 316° |
| 2026-04-21 22:12 | 29.09918 | -110.87483 | 2990 ft | 177 kts | 316° |
| 2026-04-21 22:12 | 29.10777 | -110.88439 | 2993 ft | 170 kts | 315° |
| 2026-04-21 22:12 | 29.11623 | -110.89385 | 3015 ft | 170 kts | 316° |
| 2026-04-21 22:12 | 29.12456 | -110.90312 | 2995 ft | 162 kts | 316° |
| 2026-04-21 22:13 | 29.13251 | -110.91197 | 3034 ft | 159 kts | 316° |
| 2026-04-21 22:13 | 29.13993 | -110.92142 | 3011 ft | 160 kts | 301° |
| 2026-04-21 22:13 | 29.14175 | -110.93361 | 3014 ft | 160 kts | 266° |
| 2026-04-21 22:13 | 29.14038 | -110.94620 | 2992 ft | 158 kts | 263° |
| 2026-04-21 22:14 | 29.13986 | -110.95150 | 2912 ft | 156 kts | 264° |
| 2026-04-21 22:14 | 29.13970 | -110.95346 | 2869 ft | 156 kts | 264° |
| 2026-04-21 22:14 | 29.13874 | -110.96578 | 2465 ft | 155 kts | 263° |
| 2026-04-21 22:14 | 29.13524 | -110.97738 | 1997 ft | 155 kts | 239° |
| 2026-04-21 22:15 | 29.12923 | -110.98759 | 1571 ft | 154 kts | 236° |
| 2026-04-21 22:15 | 29.12335 | -110.99786 | 1410 ft | 155 kts | 237° |
| 2026-04-21 22:15 | 29.11762 | -111.00825 | 1382 ft | 157 kts | 238° |
| 2026-04-21 22:15 | 29.11177 | -111.01883 | 1161 ft | 155 kts | 237° |
| 2026-04-21 22:16 | 29.10589 | -111.02909 | 927 ft | 154 kts | 237° |
| 2026-04-21 22:16 | 29.10029 | -111.03952 | 717 ft | 154 kts | 239° |
| 2026-04-21 22:16 | 29.09488 | -111.04968 | 641 ft | 131 kts | 239° |
| 2026-04-21 22:16 | 29.09224 | -111.05457 | 641 ft | 24 kts | 237° |
| 2026-04-21 22:17 | 29.09164 | -111.05571 | 641 ft | 11 kts | 239° |
| 2026-04-21 22:17 | 29.09119 | -111.05656 | 641 ft | 14 kts | 236° |
| 2026-04-21 22:17 | 29.09081 | -111.05652 | 641 ft | 8 kts | 93° |
| 2026-04-21 22:17 | 29.09082 | -111.05580 | 641 ft | 10 kts | 89° |
| 2026-04-21 22:18 | 29.09085 | -111.05499 | 641 ft | 10 kts | 87° |
| 2026-04-21 22:18 | 29.09087 | -111.05464 | 641 ft | 4 kts | 87° |
| 2026-04-21 22:18 | 29.09091 | -111.05388 | 641 ft | 19 kts | 87° |
| 2026-04-21 22:18 | 29.09134 | -111.05266 | 641 ft | 11 kts | 57° |
| 2026-04-21 22:19 | 29.09160 | -111.05220 | 641 ft | 5 kts | 63° |
| 2026-04-21 22:19 | 29.09139 | -111.05197 | 641 ft | 6 kts | 153° |
| 2026-04-21 22:19 | 29.09103 | -111.05172 | 641 ft | 6 kts | 149° |
| 2026-04-21 22:19 | 29.09093 | -111.05165 | 641 ft | 0 kts | 148° |